sensor_id;sensor_type;location;lat;lon;timestamp;P1;durP1;ratioP1;P2;durP2;ratioP2
9106;SDS011;4589;48.690;8.952;2023-05-08T00:01:40;31.90;;;20.43;;
9106;SDS011;4589;48.690;8.952;2023-05-08T00:04:06;29.47;;;20.77;;
9106;SDS011;4589;48.690;8.952;2023-05-08T00:06:32;33.00;;;21.63;;
9106;SDS011;4589;48.690;8.952;2023-05-08T00:08:58;32.03;;;18.63;;
9106;SDS011;4589;48.690;8.952;2023-05-08T00:11:24;30.03;;;20.27;;
9106;SDS011;4589;48.690;8.952;2023-05-08T00:13:50;35.47;;;21.10;;
9106;SDS011;4589;48.690;8.952;2023-05-08T00:16:16;31.80;;;20.30;;
9106;SDS011;4589;48.690;8.952;2023-05-08T00:18:42;33.90;;;21.40;;
9106;SDS011;4589;48.690;8.952;2023-05-08T00:21:08;29.93;;;19.03;;
9106;SDS011;4589;48.690;8.952;2023-05-08T00:23:34;35.90;;;19.53;;
9106;SDS011;4589;48.690;8.952;2023-05-08T00:26:00;30.20;;;19.07;;
9106;SDS011;4589;48.690;8.952;2023-05-08T00:28:26;33.23;;;18.70;;
9106;SDS011;4589;48.690;8.952;2023-05-08T00:30:52;31.27;;;18.57;;
9106;SDS011;4589;48.690;8.952;2023-05-08T00:33:18;31.53;;;17.97;;
9106;SDS011;4589;48.690;8.952;2023-05-08T00:35:44;29.37;;;17.80;;
9106;SDS011;4589;48.690;8.952;2023-05-08T00:38:10;31.20;;;20.77;;
9106;SDS011;4589;48.690;8.952;2023-05-08T00:40:36;23.70;;;16.83;;
9106;SDS011;4589;48.690;8.952;2023-05-08T00:43:02;30.50;;;16.90;;
9106;SDS011;4589;48.690;8.952;2023-05-08T00:45:31;24.73;;;16.37;;
9106;SDS011;4589;48.690;8.952;2023-05-08T00:48:00;29.37;;;18.40;;
9106;SDS011;4589;48.690;8.952;2023-05-08T00:50:26;31.77;;;19.73;;
9106;SDS011;4589;48.690;8.952;2023-05-08T00:52:52;28.47;;;19.03;;
9106;SDS011;4589;48.690;8.952;2023-05-08T00:55:18;30.10;;;17.50;;
9106;SDS011;4589;48.690;8.952;2023-05-08T00:57:44;25.70;;;15.93;;
9106;SDS011;4589;48.690;8.952;2023-05-08T01:00:11;33.57;;;21.40;;
9106;SDS011;4589;48.690;8.952;2023-05-08T01:02:37;30.13;;;19.63;;
9106;SDS011;4589;48.690;8.952;2023-05-08T01:05:04;32.80;;;21.00;;
9106;SDS011;4589;48.690;8.952;2023-05-08T01:07:30;39.10;;;21.07;;
9106;SDS011;4589;48.690;8.952;2023-05-08T01:09:56;31.00;;;18.97;;
9106;SDS011;4589;48.690;8.952;2023-05-08T01:12:33;40.20;;;21.57;;
9106;SDS011;4589;48.690;8.952;2023-05-08T01:33:23;41.57;;;22.83;;
9106;SDS011;4589;48.690;8.952;2023-05-08T01:36:03;32.30;;;20.47;;
9106;SDS011;4589;48.690;8.952;2023-05-08T01:38:32;27.37;;;15.23;;
9106;SDS011;4589;48.690;8.952;2023-05-08T01:41:07;31.43;;;19.70;;
9106;SDS011;4589;48.690;8.952;2023-05-08T01:43:40;34.53;;;19.90;;
9106;SDS011;4589;48.690;8.952;2023-05-08T01:46:12;29.00;;;19.03;;
9106;SDS011;4589;48.690;8.952;2023-05-08T01:48:42;32.77;;;18.87;;
9106;SDS011;4589;48.690;8.952;2023-05-08T01:51:18;36.13;;;20.07;;
9106;SDS011;4589;48.690;8.952;2023-05-08T01:53:47;31.53;;;19.83;;
9106;SDS011;4589;48.690;8.952;2023-05-08T01:56:15;32.67;;;17.80;;
9106;SDS011;4589;48.690;8.952;2023-05-08T01:58:42;25.77;;;17.10;;
9106;SDS011;4589;48.690;8.952;2023-05-08T02:01:09;30.77;;;19.20;;
9106;SDS011;4589;48.690;8.952;2023-05-08T02:03:38;30.67;;;20.53;;
9106;SDS011;4589;48.690;8.952;2023-05-08T02:06:04;34.53;;;19.67;;
9106;SDS011;4589;48.690;8.952;2023-05-08T02:08:31;29.50;;;18.60;;
9106;SDS011;4589;48.690;8.952;2023-05-08T02:10:58;28.80;;;17.00;;
9106;SDS011;4589;48.690;8.952;2023-05-08T02:13:25;35.93;;;18.90;;
9106;SDS011;4589;48.690;8.952;2023-05-08T02:15:52;36.07;;;23.20;;
9106;SDS011;4589;48.690;8.952;2023-05-08T02:18:19;31.70;;;17.60;;
9106;SDS011;4589;48.690;8.952;2023-05-08T02:20:47;30.40;;;18.70;;
9106;SDS011;4589;48.690;8.952;2023-05-08T02:23:13;35.03;;;19.50;;
9106;SDS011;4589;48.690;8.952;2023-05-08T02:25:41;36.40;;;21.00;;
9106;SDS011;4589;48.690;8.952;2023-05-08T02:28:09;32.70;;;19.30;;
9106;SDS011;4589;48.690;8.952;2023-05-08T02:30:36;37.97;;;22.33;;
9106;SDS011;4589;48.690;8.952;2023-05-08T02:33:02;35.40;;;20.33;;
9106;SDS011;4589;48.690;8.952;2023-05-08T02:35:29;37.73;;;20.10;;
9106;SDS011;4589;48.690;8.952;2023-05-08T02:37:56;36.40;;;20.07;;
9106;SDS011;4589;48.690;8.952;2023-05-08T02:40:23;30.57;;;19.60;;
9106;SDS011;4589;48.690;8.952;2023-05-08T02:42:50;38.47;;;19.67;;
9106;SDS011;4589;48.690;8.952;2023-05-08T02:45:17;33.17;;;19.20;;
9106;SDS011;4589;48.690;8.952;2023-05-08T02:47:46;28.37;;;17.87;;
9106;SDS011;4589;48.690;8.952;2023-05-08T02:50:24;35.73;;;22.23;;
9106;SDS011;4589;48.690;8.952;2023-05-08T02:53:01;32.80;;;18.53;;
9106;SDS011;4589;48.690;8.952;2023-05-08T02:55:32;27.40;;;17.20;;
9106;SDS011;4589;48.690;8.952;2023-05-08T02:58:13;25.10;;;16.10;;
9106;SDS011;4589;48.690;8.952;2023-05-08T03:01:03;29.63;;;16.07;;
9106;SDS011;4589;48.690;8.952;2023-05-08T03:03:48;30.00;;;18.30;;
9106;SDS011;4589;48.690;8.952;2023-05-08T03:06:25;29.23;;;17.57;;
9106;SDS011;4589;48.690;8.952;2023-05-08T03:08:51;31.17;;;18.60;;
9106;SDS011;4589;48.690;8.952;2023-05-08T03:11:25;36.33;;;19.57;;
9106;SDS011;4589;48.690;8.952;2023-05-08T03:13:57;46.20;;;21.47;;
9106;SDS011;4589;48.690;8.952;2023-05-08T03:16:25;38.83;;;20.13;;
9106;SDS011;4589;48.690;8.952;2023-05-08T03:18:54;50.67;;;24.37;;
9106;SDS011;4589;48.690;8.952;2023-05-08T03:21:21;43.40;;;22.83;;
9106;SDS011;4589;48.690;8.952;2023-05-08T03:23:51;41.37;;;22.43;;
9106;SDS011;4589;48.690;8.952;2023-05-08T03:26:17;53.33;;;24.77;;
9106;SDS011;4589;48.690;8.952;2023-05-08T03:28:45;42.80;;;21.53;;
9106;SDS011;4589;48.690;8.952;2023-05-08T03:31:13;42.73;;;20.97;;
9106;SDS011;4589;48.690;8.952;2023-05-08T03:33:45;46.83;;;19.10;;
9106;SDS011;4589;48.690;8.952;2023-05-08T03:36:13;53.73;;;25.43;;
9106;SDS011;4589;48.690;8.952;2023-05-08T03:38:39;49.93;;;23.97;;
9106;SDS011;4589;48.690;8.952;2023-05-08T03:41:05;45.63;;;23.47;;
9106;SDS011;4589;48.690;8.952;2023-05-08T03:43:31;45.70;;;25.07;;
9106;SDS011;4589;48.690;8.952;2023-05-08T03:45:57;41.43;;;22.97;;
9106;SDS011;4589;48.690;8.952;2023-05-08T03:48:23;34.03;;;21.57;;
9106;SDS011;4589;48.690;8.952;2023-05-08T03:50:51;44.27;;;22.73;;
9106;SDS011;4589;48.690;8.952;2023-05-08T03:53:18;50.30;;;23.67;;
9106;SDS011;4589;48.690;8.952;2023-05-08T03:55:44;37.80;;;23.10;;
9106;SDS011;4589;48.690;8.952;2023-05-08T04:05:49;31.53;;;19.83;;
9106;SDS011;4589;48.690;8.952;2023-05-08T04:08:21;38.33;;;19.07;;
9106;SDS011;4589;48.690;8.952;2023-05-08T04:10:54;34.40;;;19.70;;
9106;SDS011;4589;48.690;8.952;2023-05-08T04:13:24;40.07;;;19.20;;
9106;SDS011;4589;48.690;8.952;2023-05-08T04:18:27;39.33;;;22.43;;
9106;SDS011;4589;48.690;8.952;2023-05-08T04:20:55;44.40;;;24.20;;
9106;SDS011;4589;48.690;8.952;2023-05-08T04:23:21;46.57;;;23.77;;
9106;SDS011;4589;48.690;8.952;2023-05-08T04:25:47;47.57;;;23.50;;
9106;SDS011;4589;48.690;8.952;2023-05-08T04:28:14;59.93;;;29.30;;
9106;SDS011;4589;48.690;8.952;2023-05-08T04:30:40;61.07;;;29.07;;
9106;SDS011;4589;48.690;8.952;2023-05-08T04:33:06;62.30;;;28.80;;
9106;SDS011;4589;48.690;8.952;2023-05-08T04:35:33;61.80;;;29.20;;
9106;SDS011;4589;48.690;8.952;2023-05-08T04:37:59;50.70;;;28.13;;
9106;SDS011;4589;48.690;8.952;2023-05-08T04:40:25;67.30;;;31.00;;
9106;SDS011;4589;48.690;8.952;2023-05-08T04:42:51;70.77;;;32.87;;
9106;SDS011;4589;48.690;8.952;2023-05-08T04:45:17;64.63;;;31.17;;
9106;SDS011;4589;48.690;8.952;2023-05-08T04:47:43;69.83;;;30.50;;
9106;SDS011;4589;48.690;8.952;2023-05-08T04:50:09;70.23;;;29.90;;
9106;SDS011;4589;48.690;8.952;2023-05-08T04:52:35;76.30;;;32.60;;
9106;SDS011;4589;48.690;8.952;2023-05-08T04:55:01;74.30;;;31.77;;
9106;SDS011;4589;48.690;8.952;2023-05-08T04:57:27;83.40;;;33.37;;
9106;SDS011;4589;48.690;8.952;2023-05-08T04:59:53;75.53;;;34.07;;
9106;SDS011;4589;48.690;8.952;2023-05-08T05:02:19;69.20;;;34.50;;
9106;SDS011;4589;48.690;8.952;2023-05-08T05:04:45;97.93;;;36.90;;
9106;SDS011;4589;48.690;8.952;2023-05-08T05:07:11;77.70;;;35.90;;
9106;SDS011;4589;48.690;8.952;2023-05-08T05:09:36;78.93;;;34.23;;
9106;SDS011;4589;48.690;8.952;2023-05-08T05:12:03;78.53;;;34.57;;
9106;SDS011;4589;48.690;8.952;2023-05-08T05:14:29;71.87;;;34.10;;
9106;SDS011;4589;48.690;8.952;2023-05-08T05:16:55;76.37;;;34.10;;
9106;SDS011;4589;48.690;8.952;2023-05-08T05:19:21;70.60;;;32.47;;
9106;SDS011;4589;48.690;8.952;2023-05-08T05:21:47;83.50;;;33.80;;
9106;SDS011;4589;48.690;8.952;2023-05-08T05:24:13;71.17;;;32.50;;
9106;SDS011;4589;48.690;8.952;2023-05-08T05:26:39;69.00;;;31.40;;
9106;SDS011;4589;48.690;8.952;2023-05-08T05:29:05;84.70;;;34.20;;
9106;SDS011;4589;48.690;8.952;2023-05-08T05:31:31;74.80;;;31.40;;
9106;SDS011;4589;48.690;8.952;2023-05-08T05:33:57;68.90;;;32.97;;
9106;SDS011;4589;48.690;8.952;2023-05-08T05:36:23;71.07;;;32.30;;
9106;SDS011;4589;48.690;8.952;2023-05-08T05:38:49;62.90;;;31.87;;
9106;SDS011;4589;48.690;8.952;2023-05-08T05:41:15;66.97;;;31.70;;
9106;SDS011;4589;48.690;8.952;2023-05-08T05:43:41;72.27;;;32.40;;
9106;SDS011;4589;48.690;8.952;2023-05-08T05:46:08;62.17;;;30.20;;
9106;SDS011;4589;48.690;8.952;2023-05-08T05:48:34;61.07;;;29.67;;
9106;SDS011;4589;48.690;8.952;2023-05-08T05:51:00;65.70;;;31.40;;
9106;SDS011;4589;48.690;8.952;2023-05-08T05:53:26;58.33;;;28.70;;
9106;SDS011;4589;48.690;8.952;2023-05-08T05:55:52;57.97;;;28.23;;
9106;SDS011;4589;48.690;8.952;2023-05-08T05:58:18;61.43;;;29.33;;
9106;SDS011;4589;48.690;8.952;2023-05-08T06:00:45;63.63;;;29.47;;
9106;SDS011;4589;48.690;8.952;2023-05-08T06:03:11;57.40;;;30.00;;
9106;SDS011;4589;48.690;8.952;2023-05-08T06:05:38;69.10;;;30.07;;
9106;SDS011;4589;48.690;8.952;2023-05-08T06:08:04;67.57;;;30.37;;
9106;SDS011;4589;48.690;8.952;2023-05-08T06:10:30;63.87;;;32.00;;
9106;SDS011;4589;48.690;8.952;2023-05-08T06:12:56;69.27;;;31.70;;
9106;SDS011;4589;48.690;8.952;2023-05-08T06:15:22;62.73;;;30.10;;
9106;SDS011;4589;48.690;8.952;2023-05-08T06:17:48;53.23;;;28.63;;
9106;SDS011;4589;48.690;8.952;2023-05-08T06:20:14;57.97;;;29.50;;
9106;SDS011;4589;48.690;8.952;2023-05-08T06:22:40;66.00;;;30.90;;
9106;SDS011;4589;48.690;8.952;2023-05-08T06:25:06;59.67;;;29.13;;
9106;SDS011;4589;48.690;8.952;2023-05-08T06:27:33;66.10;;;30.20;;
9106;SDS011;4589;48.690;8.952;2023-05-08T06:29:59;62.43;;;30.77;;
9106;SDS011;4589;48.690;8.952;2023-05-08T06:32:25;58.03;;;28.50;;
9106;SDS011;4589;48.690;8.952;2023-05-08T06:34:51;55.33;;;28.50;;
9106;SDS011;4589;48.690;8.952;2023-05-08T06:37:17;50.13;;;27.70;;
9106;SDS011;4589;48.690;8.952;2023-05-08T06:39:43;47.83;;;24.97;;
9106;SDS011;4589;48.690;8.952;2023-05-08T06:42:09;48.37;;;26.33;;
9106;SDS011;4589;48.690;8.952;2023-05-08T06:44:36;51.63;;;27.63;;
9106;SDS011;4589;48.690;8.952;2023-05-08T06:47:02;51.00;;;26.73;;
9106;SDS011;4589;48.690;8.952;2023-05-08T06:49:28;56.10;;;25.83;;
9106;SDS011;4589;48.690;8.952;2023-05-08T06:51:54;47.93;;;26.93;;
9106;SDS011;4589;48.690;8.952;2023-05-08T06:54:20;44.10;;;25.30;;
9106;SDS011;4589;48.690;8.952;2023-05-08T06:56:46;47.00;;;25.00;;
9106;SDS011;4589;48.690;8.952;2023-05-08T06:59:12;37.10;;;23.10;;
9106;SDS011;4589;48.690;8.952;2023-05-08T07:01:38;43.20;;;25.07;;
9106;SDS011;4589;48.690;8.952;2023-05-08T07:04:04;42.40;;;23.77;;
9106;SDS011;4589;48.690;8.952;2023-05-08T07:06:30;38.97;;;23.00;;
9106;SDS011;4589;48.690;8.952;2023-05-08T07:08:56;44.57;;;22.20;;
9106;SDS011;4589;48.690;8.952;2023-05-08T07:11:22;38.13;;;22.33;;
9106;SDS011;4589;48.690;8.952;2023-05-08T07:13:48;34.27;;;21.47;;
9106;SDS011;4589;48.690;8.952;2023-05-08T07:16:14;40.97;;;22.87;;
9106;SDS011;4589;48.690;8.952;2023-05-08T07:18:40;38.10;;;22.33;;
9106;SDS011;4589;48.690;8.952;2023-05-08T07:21:06;38.13;;;23.43;;
9106;SDS011;4589;48.690;8.952;2023-05-08T07:23:32;35.30;;;21.37;;
9106;SDS011;4589;48.690;8.952;2023-05-08T07:25:58;35.67;;;21.90;;
9106;SDS011;4589;48.690;8.952;2023-05-08T07:28:24;32.30;;;20.23;;
9106;SDS011;4589;48.690;8.952;2023-05-08T07:30:50;43.80;;;21.93;;
9106;SDS011;4589;48.690;8.952;2023-05-08T07:33:16;32.93;;;21.27;;
9106;SDS011;4589;48.690;8.952;2023-05-08T07:35:42;35.00;;;20.97;;
9106;SDS011;4589;48.690;8.952;2023-05-08T07:38:08;35.30;;;20.50;;
9106;SDS011;4589;48.690;8.952;2023-05-08T07:40:34;27.30;;;18.77;;
9106;SDS011;4589;48.690;8.952;2023-05-08T07:43:00;25.30;;;17.27;;
9106;SDS011;4589;48.690;8.952;2023-05-08T07:45:27;26.70;;;18.77;;
9106;SDS011;4589;48.690;8.952;2023-05-08T07:47:54;21.93;;;18.10;;
9106;SDS011;4589;48.690;8.952;2023-05-08T07:50:21;23.90;;;16.67;;
9106;SDS011;4589;48.690;8.952;2023-05-08T07:52:47;20.93;;;15.33;;
9106;SDS011;4589;48.690;8.952;2023-05-08T07:55:13;19.93;;;14.77;;
9106;SDS011;4589;48.690;8.952;2023-05-08T07:57:40;18.80;;;14.47;;
9106;SDS011;4589;48.690;8.952;2023-05-08T08:00:08;16.50;;;12.90;;
9106;SDS011;4589;48.690;8.952;2023-05-08T08:02:34;18.70;;;13.13;;
9106;SDS011;4589;48.690;8.952;2023-05-08T08:05:00;16.23;;;14.00;;
9106;SDS011;4589;48.690;8.952;2023-05-08T08:07:26;15.97;;;12.80;;
9106;SDS011;4589;48.690;8.952;2023-05-08T08:09:52;13.70;;;12.20;;
9106;SDS011;4589;48.690;8.952;2023-05-08T08:12:17;15.10;;;12.23;;
9106;SDS011;4589;48.690;8.952;2023-05-08T08:14:44;33.93;;;11.97;;
9106;SDS011;4589;48.690;8.952;2023-05-08T08:17:10;14.93;;;12.83;;
9106;SDS011;4589;48.690;8.952;2023-05-08T08:19:36;15.40;;;11.80;;
9106;SDS011;4589;48.690;8.952;2023-05-08T08:22:02;13.33;;;11.93;;
9106;SDS011;4589;48.690;8.952;2023-05-08T08:24:28;18.50;;;11.13;;
9106;SDS011;4589;48.690;8.952;2023-05-08T08:26:54;13.40;;;11.37;;
9106;SDS011;4589;48.690;8.952;2023-05-08T08:29:20;13.30;;;11.80;;
9106;SDS011;4589;48.690;8.952;2023-05-08T08:31:46;12.50;;;10.90;;
9106;SDS011;4589;48.690;8.952;2023-05-08T08:34:12;13.43;;;11.47;;
9106;SDS011;4589;48.690;8.952;2023-05-08T08:36:39;13.83;;;11.27;;
9106;SDS011;4589;48.690;8.952;2023-05-08T08:39:05;11.77;;;9.83;;
9106;SDS011;4589;48.690;8.952;2023-05-08T08:41:31;13.73;;;11.43;;
9106;SDS011;4589;48.690;8.952;2023-05-08T08:43:57;15.63;;;10.47;;
9106;SDS011;4589;48.690;8.952;2023-05-08T08:46:25;12.30;;;10.20;;
9106;SDS011;4589;48.690;8.952;2023-05-08T08:48:53;12.63;;;10.30;;
9106;SDS011;4589;48.690;8.952;2023-05-08T08:51:36;12.27;;;10.00;;
9106;SDS011;4589;48.690;8.952;2023-05-08T08:54:10;10.40;;;9.10;;
9106;SDS011;4589;48.690;8.952;2023-05-08T08:56:40;11.73;;;10.50;;
9106;SDS011;4589;48.690;8.952;2023-05-08T08:59:07;12.17;;;10.73;;
9106;SDS011;4589;48.690;8.952;2023-05-08T09:01:34;11.07;;;9.80;;
9106;SDS011;4589;48.690;8.952;2023-05-08T09:04:01;11.70;;;10.50;;
9106;SDS011;4589;48.690;8.952;2023-05-08T09:06:27;12.70;;;10.53;;
9106;SDS011;4589;48.690;8.952;2023-05-08T09:08:57;14.80;;;11.00;;
9106;SDS011;4589;48.690;8.952;2023-05-08T09:11:23;12.53;;;11.27;;
9106;SDS011;4589;48.690;8.952;2023-05-08T09:13:50;15.07;;;11.60;;
9106;SDS011;4589;48.690;8.952;2023-05-08T09:16:16;16.00;;;12.83;;
9106;SDS011;4589;48.690;8.952;2023-05-08T09:18:42;14.40;;;11.27;;
9106;SDS011;4589;48.690;8.952;2023-05-08T09:21:08;15.40;;;12.60;;
9106;SDS011;4589;48.690;8.952;2023-05-08T09:23:34;15.73;;;13.33;;
9106;SDS011;4589;48.690;8.952;2023-05-08T09:26:00;16.90;;;12.73;;
9106;SDS011;4589;48.690;8.952;2023-05-08T09:28:26;18.23;;;13.43;;
9106;SDS011;4589;48.690;8.952;2023-05-08T09:30:57;19.33;;;14.70;;
9106;SDS011;4589;48.690;8.952;2023-05-08T09:33:25;19.57;;;14.07;;
9106;SDS011;4589;48.690;8.952;2023-05-08T09:35:52;17.13;;;14.33;;
9106;SDS011;4589;48.690;8.952;2023-05-08T09:38:37;16.23;;;13.07;;
9106;SDS011;4589;48.690;8.952;2023-05-08T09:41:06;17.20;;;13.63;;
9106;SDS011;4589;48.690;8.952;2023-05-08T09:43:32;16.17;;;13.40;;
9106;SDS011;4589;48.690;8.952;2023-05-08T09:46:15;16.10;;;13.33;;
9106;SDS011;4589;48.690;8.952;2023-05-08T09:48:47;18.00;;;13.40;;
9106;SDS011;4589;48.690;8.952;2023-05-08T09:51:13;16.97;;;14.40;;
9106;SDS011;4589;48.690;8.952;2023-05-08T09:53:39;15.63;;;13.57;;
9106;SDS011;4589;48.690;8.952;2023-05-08T09:56:05;19.67;;;13.90;;
9106;SDS011;4589;48.690;8.952;2023-05-08T09:58:38;16.63;;;13.10;;
9106;SDS011;4589;48.690;8.952;2023-05-08T10:01:04;17.53;;;12.73;;
9106;SDS011;4589;48.690;8.952;2023-05-08T10:03:49;15.40;;;11.70;;
9106;SDS011;4589;48.690;8.952;2023-05-08T10:06:15;19.70;;;12.20;;
9106;SDS011;4589;48.690;8.952;2023-05-08T10:08:41;19.00;;;11.43;;
9106;SDS011;4589;48.690;8.952;2023-05-08T10:11:14;14.07;;;11.90;;
9106;SDS011;4589;48.690;8.952;2023-05-08T10:13:44;16.03;;;13.20;;
9106;SDS011;4589;48.690;8.952;2023-05-08T10:16:11;12.90;;;11.37;;
9106;SDS011;4589;48.690;8.952;2023-05-08T10:18:41;14.63;;;12.07;;
9106;SDS011;4589;48.690;8.952;2023-05-08T10:21:11;14.47;;;10.90;;
9106;SDS011;4589;48.690;8.952;2023-05-08T10:23:38;14.67;;;11.23;;
9106;SDS011;4589;48.690;8.952;2023-05-08T10:26:06;14.60;;;11.83;;
9106;SDS011;4589;48.690;8.952;2023-05-08T10:31:23;14.97;;;12.50;;
9106;SDS011;4589;48.690;8.952;2023-05-08T10:33:50;12.17;;;10.07;;
9106;SDS011;4589;48.690;8.952;2023-05-08T10:36:19;9.20;;;8.27;;
9106;SDS011;4589;48.690;8.952;2023-05-08T10:38:46;9.50;;;7.87;;
9106;SDS011;4589;48.690;8.952;2023-05-08T10:41:12;9.67;;;8.63;;
9106;SDS011;4589;48.690;8.952;2023-05-08T10:43:40;11.10;;;9.20;;
9106;SDS011;4589;48.690;8.952;2023-05-08T10:46:08;12.33;;;10.50;;
9106;SDS011;4589;48.690;8.952;2023-05-08T10:51:47;15.63;;;11.90;;
9106;SDS011;4589;48.690;8.952;2023-05-08T10:54:25;13.43;;;11.00;;
9106;SDS011;4589;48.690;8.952;2023-05-08T10:56:51;14.23;;;11.47;;
9106;SDS011;4589;48.690;8.952;2023-05-08T10:59:33;14.17;;;11.47;;
9106;SDS011;4589;48.690;8.952;2023-05-08T11:02:04;15.20;;;11.20;;
9106;SDS011;4589;48.690;8.952;2023-05-08T11:04:31;15.20;;;11.77;;
9106;SDS011;4589;48.690;8.952;2023-05-08T11:06:57;15.73;;;11.40;;
9106;SDS011;4589;48.690;8.952;2023-05-08T11:09:27;15.30;;;10.97;;
9106;SDS011;4589;48.690;8.952;2023-05-08T11:12:24;11.70;;;10.43;;
9106;SDS011;4589;48.690;8.952;2023-05-08T11:17:23;9.63;;;6.97;;
9106;SDS011;4589;48.690;8.952;2023-05-08T11:19:54;6.80;;;6.00;;
9106;SDS011;4589;48.690;8.952;2023-05-08T11:25:04;5.47;;;4.93;;
9106;SDS011;4589;48.690;8.952;2023-05-08T11:30:23;6.23;;;5.57;;
9106;SDS011;4589;48.690;8.952;2023-05-08T11:38:16;6.90;;;6.20;;
9106;SDS011;4589;48.690;8.952;2023-05-08T11:48:30;7.77;;;5.90;;
9106;SDS011;4589;48.690;8.952;2023-05-08T11:50:57;6.97;;;6.17;;
9106;SDS011;4589;48.690;8.952;2023-05-08T11:53:23;10.17;;;5.80;;
9106;SDS011;4589;48.690;8.952;2023-05-08T11:55:53;6.47;;;5.87;;
9106;SDS011;4589;48.690;8.952;2023-05-08T11:58:19;5.67;;;5.17;;
9106;SDS011;4589;48.690;8.952;2023-05-08T12:00:46;4.10;;;3.47;;
9106;SDS011;4589;48.690;8.952;2023-05-08T12:03:15;4.10;;;3.73;;
9106;SDS011;4589;48.690;8.952;2023-05-08T12:05:42;4.00;;;3.60;;
9106;SDS011;4589;48.690;8.952;2023-05-08T12:08:09;3.27;;;2.97;;
9106;SDS011;4589;48.690;8.952;2023-05-08T12:10:39;4.20;;;3.80;;
9106;SDS011;4589;48.690;8.952;2023-05-08T12:13:15;4.00;;;3.70;;
9106;SDS011;4589;48.690;8.952;2023-05-08T12:15:42;4.70;;;3.40;;
9106;SDS011;4589;48.690;8.952;2023-05-08T12:18:08;4.30;;;3.77;;
9106;SDS011;4589;48.690;8.952;2023-05-08T12:20:34;4.00;;;3.60;;
9106;SDS011;4589;48.690;8.952;2023-05-08T12:23:01;4.27;;;3.83;;
9106;SDS011;4589;48.690;8.952;2023-05-08T12:25:27;3.60;;;3.30;;
9106;SDS011;4589;48.690;8.952;2023-05-08T12:27:53;3.67;;;3.37;;
9106;SDS011;4589;48.690;8.952;2023-05-08T12:30:19;4.00;;;3.60;;
9106;SDS011;4589;48.690;8.952;2023-05-08T12:32:45;3.50;;;3.20;;
9106;SDS011;4589;48.690;8.952;2023-05-08T12:35:12;3.80;;;3.30;;
9106;SDS011;4589;48.690;8.952;2023-05-08T12:37:38;3.77;;;3.47;;
9106;SDS011;4589;48.690;8.952;2023-05-08T12:40:05;5.47;;;4.00;;
9106;SDS011;4589;48.690;8.952;2023-05-08T12:42:41;3.87;;;3.57;;
9106;SDS011;4589;48.690;8.952;2023-05-08T12:45:07;4.70;;;4.30;;
9106;SDS011;4589;48.690;8.952;2023-05-08T12:47:33;5.43;;;4.00;;
9106;SDS011;4589;48.690;8.952;2023-05-08T12:49:59;4.07;;;3.67;;
9106;SDS011;4589;48.690;8.952;2023-05-08T12:52:26;4.90;;;4.40;;
9106;SDS011;4589;48.690;8.952;2023-05-08T12:54:52;4.80;;;4.40;;
9106;SDS011;4589;48.690;8.952;2023-05-08T12:57:18;5.00;;;4.50;;
9106;SDS011;4589;48.690;8.952;2023-05-08T12:59:46;5.33;;;4.10;;
9106;SDS011;4589;48.690;8.952;2023-05-08T13:04:38;4.87;;;4.47;;
9106;SDS011;4589;48.690;8.952;2023-05-08T13:07:04;5.50;;;4.73;;
9106;SDS011;4589;48.690;8.952;2023-05-08T13:09:30;4.60;;;4.20;;
9106;SDS011;4589;48.690;8.952;2023-05-08T13:11:56;6.97;;;5.20;;
9106;SDS011;4589;48.690;8.952;2023-05-08T13:14:23;4.93;;;4.43;;
9106;SDS011;4589;48.690;8.952;2023-05-08T13:16:49;5.07;;;4.60;;
9106;SDS011;4589;48.690;8.952;2023-05-08T13:19:15;5.47;;;5.00;;
9106;SDS011;4589;48.690;8.952;2023-05-08T13:21:43;4.87;;;4.40;;
9106;SDS011;4589;48.690;8.952;2023-05-08T13:24:11;6.23;;;5.60;;
9106;SDS011;4589;48.690;8.952;2023-05-08T13:26:37;5.20;;;4.60;;
9106;SDS011;4589;48.690;8.952;2023-05-08T13:29:03;4.67;;;4.27;;
9106;SDS011;4589;48.690;8.952;2023-05-08T13:31:29;5.30;;;4.80;;
9106;SDS011;4589;48.690;8.952;2023-05-08T13:33:55;5.40;;;4.90;;
9106;SDS011;4589;48.690;8.952;2023-05-08T13:36:21;5.50;;;5.00;;
9106;SDS011;4589;48.690;8.952;2023-05-08T13:38:48;6.70;;;5.30;;
9106;SDS011;4589;48.690;8.952;2023-05-08T13:41:15;7.50;;;5.77;;
9106;SDS011;4589;48.690;8.952;2023-05-08T13:43:41;6.00;;;5.20;;
9106;SDS011;4589;48.690;8.952;2023-05-08T13:46:07;7.00;;;6.40;;
9106;SDS011;4589;48.690;8.952;2023-05-08T13:48:33;6.50;;;5.90;;
9106;SDS011;4589;48.690;8.952;2023-05-08T13:50:59;9.67;;;8.67;;
9106;SDS011;4589;48.690;8.952;2023-05-08T13:53:25;11.80;;;8.97;;
9106;SDS011;4589;48.690;8.952;2023-05-08T13:55:51;11.00;;;9.90;;
9106;SDS011;4589;48.690;8.952;2023-05-08T13:58:17;10.50;;;9.27;;
9106;SDS011;4589;48.690;8.952;2023-05-08T14:00:43;10.20;;;9.10;;
9106;SDS011;4589;48.690;8.952;2023-05-08T14:03:09;9.70;;;8.70;;
9106;SDS011;4589;48.690;8.952;2023-05-08T14:05:35;9.07;;;8.00;;
9106;SDS011;4589;48.690;8.952;2023-05-08T14:08:01;10.10;;;9.10;;
9106;SDS011;4589;48.690;8.952;2023-05-08T14:10:27;10.67;;;8.50;;
9106;SDS011;4589;48.690;8.952;2023-05-08T14:12:53;8.57;;;7.60;;
9106;SDS011;4589;48.690;8.952;2023-05-08T14:15:19;9.03;;;8.23;;
9106;SDS011;4589;48.690;8.952;2023-05-08T14:17:45;8.00;;;7.20;;
9106;SDS011;4589;48.690;8.952;2023-05-08T14:20:12;12.30;;;8.87;;
9106;SDS011;4589;48.690;8.952;2023-05-08T14:22:38;9.07;;;8.07;;
9106;SDS011;4589;48.690;8.952;2023-05-08T14:25:04;8.17;;;7.40;;
9106;SDS011;4589;48.690;8.952;2023-05-08T14:27:30;9.83;;;8.60;;
9106;SDS011;4589;48.690;8.952;2023-05-08T14:29:57;10.53;;;8.30;;
9106;SDS011;4589;48.690;8.952;2023-05-08T14:32:23;10.90;;;8.60;;
9106;SDS011;4589;48.690;8.952;2023-05-08T14:34:49;11.17;;;9.43;;
9106;SDS011;4589;48.690;8.952;2023-05-08T14:37:15;10.03;;;9.03;;
9106;SDS011;4589;48.690;8.952;2023-05-08T14:39:41;12.67;;;10.40;;
9106;SDS011;4589;48.690;8.952;2023-05-08T14:42:09;12.23;;;10.90;;
9106;SDS011;4589;48.690;8.952;2023-05-08T14:44:35;15.47;;;12.97;;
9106;SDS011;4589;48.690;8.952;2023-05-08T14:47:01;13.97;;;11.97;;
9106;SDS011;4589;48.690;8.952;2023-05-08T14:49:27;17.70;;;13.70;;
9106;SDS011;4589;48.690;8.952;2023-05-08T14:51:53;16.40;;;13.90;;
9106;SDS011;4589;48.690;8.952;2023-05-08T14:54:19;20.10;;;15.73;;
9106;SDS011;4589;48.690;8.952;2023-05-08T14:56:45;18.80;;;15.33;;
9106;SDS011;4589;48.690;8.952;2023-05-08T14:59:11;17.80;;;15.40;;
9106;SDS011;4589;48.690;8.952;2023-05-08T15:01:37;19.23;;;17.13;;
9106;SDS011;4589;48.690;8.952;2023-05-08T15:04:06;26.33;;;18.80;;
9106;SDS011;4589;48.690;8.952;2023-05-08T15:06:32;24.70;;;18.77;;
9106;SDS011;4589;48.690;8.952;2023-05-08T15:09:00;24.20;;;18.30;;
9106;SDS011;4589;48.690;8.952;2023-05-08T15:11:26;20.90;;;16.43;;
9106;SDS011;4589;48.690;8.952;2023-05-08T15:13:52;26.50;;;17.67;;
9106;SDS011;4589;48.690;8.952;2023-05-08T15:16:18;21.20;;;16.80;;
9106;SDS011;4589;48.690;8.952;2023-05-08T15:18:44;20.10;;;16.17;;
9106;SDS011;4589;48.690;8.952;2023-05-08T15:21:10;20.50;;;15.87;;
9106;SDS011;4589;48.690;8.952;2023-05-08T15:23:36;21.50;;;16.17;;
9106;SDS011;4589;48.690;8.952;2023-05-08T15:26:02;19.43;;;16.67;;
9106;SDS011;4589;48.690;8.952;2023-05-08T15:28:28;17.90;;;14.97;;
9106;SDS011;4589;48.690;8.952;2023-05-08T15:30:54;23.83;;;14.83;;
9106;SDS011;4589;48.690;8.952;2023-05-08T15:33:20;16.90;;;14.83;;
9106;SDS011;4589;48.690;8.952;2023-05-08T15:35:46;17.37;;;14.93;;
9106;SDS011;4589;48.690;8.952;2023-05-08T15:38:12;21.80;;;17.63;;
9106;SDS011;4589;48.690;8.952;2023-05-08T15:40:37;23.50;;;19.53;;
9106;SDS011;4589;48.690;8.952;2023-05-08T15:43:04;21.80;;;17.30;;
9106;SDS011;4589;48.690;8.952;2023-05-08T15:45:30;26.30;;;19.40;;
9106;SDS011;4589;48.690;8.952;2023-05-08T15:47:55;27.57;;;20.43;;
9106;SDS011;4589;48.690;8.952;2023-05-08T15:50:21;28.43;;;20.90;;
9106;SDS011;4589;48.690;8.952;2023-05-08T15:52:48;29.00;;;20.77;;